Wetterdaten: Woche 02.05.11 - 08.05.11 (KW18)
Datum Zeit Temperatur Luftfeuchte Luftdruck Niederschlag Windrichtung Sonnenschein Solar Wind
02.05.2011 00:00 8,9 C 93 % 1006,5 hPa 0,0 l/m N 0,00 h 0 W/m 1,6 km/h (1 Bft)
02.05.2011 01:00 8,0 C 94 % 1006,2 hPa 0,0 l/m N-NO 0,00 h 0 W/m 2,4 km/h (1 Bft)
02.05.2011 02:00 7,2 C 95 % 1005,8 hPa 0,0 l/m N-NO 0,00 h 0 W/m 3,6 km/h (1 Bft)
02.05.2011 03:00 6,8 C 96 % 1005,7 hPa 0,0 l/m N-NO 0,00 h 0 W/m 4,1 km/h (1 Bft)
02.05.2011 04:00 6,3 C 96 % 1005,4 hPa 0,0 l/m N-NO 0,00 h 0 W/m 3,9 km/h (1 Bft)
02.05.2011 05:00 5,9 C 97 % 1005,0 hPa 0,0 l/m N-NO 0,00 h 0 W/m 3,3 km/h (1 Bft)
02.05.2011 06:00 5,5 C 97 % 1005,0 hPa 0,0 l/m N-NO 0,00 h 23 W/m 3,6 km/h (1 Bft)
02.05.2011 07:00 6,0 C 98 % 1005,1 hPa 0,0 l/m N-NO 0,08 h 84 W/m 5,5 km/h (1 Bft)
02.05.2011 08:00 6,9 C 98 % 1005,1 hPa 0,0 l/m N-NO 0,08 h 164 W/m 6,1 km/h (2 Bft)
02.05.2011 09:00 8,5 C 95 % 1005,0 hPa 0,0 l/m N-NO 0,00 h 203 W/m 7,3 km/h (2 Bft)
02.05.2011 10:00 10,6 C 88 % 1004,9 hPa 0,0 l/m N-NO 0,92 h 622 W/m 9,1 km/h (2 Bft)
02.05.2011 11:00 13,6 C 74 % 1004,4 hPa 0,0 l/m NO 1,00 h 830 W/m 5,9 km/h (2 Bft)
02.05.2011 12:00 15,6 C 65 % 1003,9 hPa 0,0 l/m N-NO 1,00 h 904 W/m 6,8 km/h (2 Bft)
02.05.2011 13:00 17,6 C 57 % 1003,1 hPa 0,0 l/m NO 1,00 h 920 W/m 9,8 km/h (2 Bft)
02.05.2011 14:00 18,5 C 53 % 1002,5 hPa 0,0 l/m O 0,33 h 393 W/m 10,8 km/h (2 Bft)
02.05.2011 15:00 18,0 C 53 % 1002,1 hPa 0,0 l/m N-NO 0,00 h 194 W/m 8,9 km/h (2 Bft)
02.05.2011 16:00 17,9 C 53 % 1001,6 hPa 0,0 l/m N-NO 0,33 h 295 W/m 8,2 km/h (2 Bft)
02.05.2011 17:00 17,4 C 54 % 1001,4 hPa 0,0 l/m N-NO 0,25 h 240 W/m 16,9 km/h (3 Bft)
02.05.2011 18:00 15,9 C 59 % 1001,5 hPa 0,0 l/m N 0,00 h 96 W/m 13,0 km/h (3 Bft)
02.05.2011 19:00 14,7 C 69 % 1001,5 hPa 0,0 l/m N 0,00 h 32 W/m 11,1 km/h (2 Bft)
02.05.2011 20:00 13,8 C 76 % 1001,6 hPa 0,0 l/m NO 0,00 h 9 W/m 5,1 km/h (1 Bft)
02.05.2011 21:00 12,5 C 86 % 1002,0 hPa 0,2 l/m N-NO 0,00 h 0 W/m 4,3 km/h (1 Bft)
02.05.2011 22:00 11,8 C 90 % 1002,2 hPa 0,2 l/m N-NO 0,00 h 0 W/m 3,1 km/h (1 Bft)
02.05.2011 23:00 11,1 C 93 % 1002,1 hPa 0,2 l/m N-NO 0,00 h 0 W/m 4,1 km/h (1 Bft)
03.05.2011 00:00 10,6 C 91 % 1002,0 hPa 0,0 l/m N-NO 0,00 h 0 W/m 9,4 km/h (2 Bft)
03.05.2011 01:00 9,8 C 90 % 1001,9 hPa 0,0 l/m NO 0,00 h 0 W/m 9,1 km/h (2 Bft)
03.05.2011 02:00 9,0 C 91 % 1001,9 hPa 0,0 l/m NO 0,00 h 0 W/m 8,9 km/h (2 Bft)
03.05.2011 03:00 8,4 C 92 % 1002,3 hPa 2,4 l/m N-NO 0,00 h 0 W/m 14,9 km/h (3 Bft)
03.05.2011 04:00 7,5 C 95 % 1002,5 hPa 1,4 l/m NO 0,00 h 0 W/m 10,9 km/h (2 Bft)
03.05.2011 05:00 6,9 C 95 % 1003,2 hPa 2,8 l/m NO 0,00 h 0 W/m 13,4 km/h (3 Bft)
03.05.2011 06:00 6,3 C 96 % 1004,1 hPa 3,6 l/m O-NO 0,00 h 5 W/m 11,8 km/h (2 Bft)
03.05.2011 07:00 6,2 C 96 % 1005,1 hPa 0,4 l/m O-NO 0,00 h 19 W/m 3,6 km/h (1 Bft)
03.05.2011 08:00 6,5 C 95 % 1006,0 hPa 0,0 l/m NO 0,00 h 28 W/m 4,9 km/h (1 Bft)
03.05.2011 09:00 6,5 C 94 % 1007,2 hPa 0,0 l/m NO 0,00 h 92 W/m 9,9 km/h (2 Bft)
03.05.2011 10:00 7,2 C 89 % 1008,2 hPa 0,0 l/m N 0,00 h 169 W/m 12,5 km/h (3 Bft)
03.05.2011 11:00 7,9 C 84 % 1009,0 hPa 0,0 l/m NO 0,00 h 279 W/m 14,1 km/h (3 Bft)
03.05.2011 12:00 8,3 C 77 % 1009,5 hPa 0,0 l/m O-NO 0,08 h 256 W/m 15,7 km/h (3 Bft)
03.05.2011 13:00 9,6 C 66 % 1010,0 hPa 0,0 l/m NO 0,42 h 572 W/m 13,6 km/h (3 Bft)
03.05.2011 14:00 9,5 C 63 % 1010,5 hPa 0,0 l/m NO 0,00 h 249 W/m 12,9 km/h (3 Bft)
03.05.2011 15:00 10,5 C 57 % 1010,6 hPa 0,0 l/m N-NO 0,25 h 350 W/m 11,1 km/h (2 Bft)
03.05.2011 16:00 10,1 C 58 % 1010,9 hPa 0,0 l/m O-NO 0,00 h 250 W/m 16,1 km/h (3 Bft)
03.05.2011 17:00 10,6 C 55 % 1011,4 hPa 0,0 l/m NO 0,75 h 384 W/m 15,2 km/h (3 Bft)
03.05.2011 18:00 10,1 C 58 % 1011,8 hPa 0,0 l/m O-NO 1,00 h 270 W/m 19,6 km/h (3 Bft)
03.05.2011 19:00 8,9 C 59 % 1012,2 hPa 0,0 l/m O-NO 0,42 h 87 W/m 17,0 km/h (3 Bft)
03.05.2011 20:00 7,4 C 67 % 1013,0 hPa 0,0 l/m O-NO 0,00 h 11 W/m 13,7 km/h (3 Bft)
03.05.2011 21:00 5,9 C 72 % 1014,0 hPa 0,0 l/m O-NO 0,00 h 0 W/m 11,4 km/h (2 Bft)
03.05.2011 22:00 4,8 C 76 % 1014,7 hPa 0,0 l/m O-NO 0,00 h 0 W/m 12,1 km/h (2 Bft)
03.05.2011 23:00 4,1 C 80 % 1014,9 hPa 0,0 l/m O-NO 0,00 h 0 W/m 11,3 km/h (2 Bft)
04.05.2011 00:00 3,4 C 84 % 1015,2 hPa 0,0 l/m O-NO 0,00 h 0 W/m 5,6 km/h (1 Bft)
04.05.2011 01:00 2,6 C 87 % 1015,1 hPa 0,0 l/m NO 0,00 h 0 W/m 4,8 km/h (1 Bft)
04.05.2011 02:00 1,7 C 90 % 1015,3 hPa 0,0 l/m N-NO 0,00 h 0 W/m 3,5 km/h (1 Bft)
04.05.2011 03:00 1,0 C 93 % 1015,3 hPa 0,0 l/m N 0,00 h 0 W/m 6,5 km/h (2 Bft)
04.05.2011 04:00 0,6 C 93 % 1015,5 hPa 0,0 l/m N 0,00 h 0 W/m 4,7 km/h (1 Bft)
04.05.2011 05:00 0,0 C 95 % 1016,0 hPa 0,0 l/m N 0,00 h 0 W/m 4,0 km/h (1 Bft)
04.05.2011 06:00 -0,1 C 95 % 1016,4 hPa 0,0 l/m N 0,25 h 36 W/m 5,2 km/h (1 Bft)
04.05.2011 07:00 1,1 C 94 % 1017,1 hPa 0,0 l/m N-NW 0,92 h 187 W/m 6,1 km/h (2 Bft)
04.05.2011 08:00 3,4 C 87 % 1017,6 hPa 0,0 l/m N 1,00 h 402 W/m 7,8 km/h (2 Bft)
04.05.2011 09:00 5,8 C 78 % 1018,0 hPa 0,0 l/m O 1,00 h 613 W/m 9,8 km/h (2 Bft)
04.05.2011 10:00 7,5 C 68 % 1018,3 hPa 0,0 l/m O 0,92 h 711 W/m 12,1 km/h (2 Bft)
04.05.2011 11:00 8,9 C 59 % 1018,5 hPa 0,0 l/m NO 1,00 h 948 W/m 8,4 km/h (2 Bft)
04.05.2011 12:00 10,1 C 51 % 1018,5 hPa 0,0 l/m N-NO 0,58 h 680 W/m 10,9 km/h (2 Bft)
04.05.2011 13:00 10,9 C 49 % 1018,4 hPa 0,0 l/m NO 0,75 h 772 W/m 10,5 km/h (2 Bft)
04.05.2011 14:00 11,8 C 43 % 1018,3 hPa 0,0 l/m NO 0,42 h 478 W/m 11,0 km/h (2 Bft)
04.05.2011 15:00 12,4 C 37 % 1018,2 hPa 0,0 l/m N-NO 1,00 h 776 W/m 11,6 km/h (2 Bft)
04.05.2011 16:00 13,0 C 37 % 1018,2 hPa 0,0 l/m O 0,92 h 594 W/m 9,0 km/h (2 Bft)
04.05.2011 17:00 13,0 C 40 % 1018,3 hPa 0,0 l/m N 0,92 h 431 W/m 9,7 km/h (2 Bft)
04.05.2011 18:00 12,9 C 40 % 1018,4 hPa 0,0 l/m NO 0,92 h 260 W/m 10,8 km/h (2 Bft)
04.05.2011 19:00 11,9 C 42 % 1018,9 hPa 0,0 l/m O-NO 0,50 h 91 W/m 11,0 km/h (2 Bft)
04.05.2011 20:00 10,1 C 50 % 1019,4 hPa 0,0 l/m O-NO 0,08 h 13 W/m 4,7 km/h (1 Bft)
04.05.2011 21:00 6,7 C 69 % 1020,2 hPa 0,0 l/m N 0,00 h 0 W/m 0,1 km/h (0 Bft)
04.05.2011 22:00 5,3 C 74 % 1020,9 hPa 0,0 l/m N 0,00 h 0 W/m 1,3 km/h (1 Bft)
04.05.2011 23:00 4,7 C 75 % 1021,3 hPa 0,0 l/m N 0,00 h 0 W/m 2,8 km/h (1 Bft)
05.05.2011 00:00 4,0 C 78 % 1021,4 hPa 0,0 l/m N 0,00 h 0 W/m 2,5 km/h (1 Bft)
05.05.2011 01:00 3,7 C 78 % 1021,5 hPa 0,0 l/m N 0,00 h 0 W/m 1,7 km/h (1 Bft)
05.05.2011 02:00 3,0 C 79 % 1021,3 hPa 0,0 l/m N 0,00 h 0 W/m 2,4 km/h (1 Bft)
05.05.2011 03:00 2,7 C 82 % 1021,3 hPa 0,0 l/m N 0,00 h 0 W/m 1,7 km/h (1 Bft)
05.05.2011 04:00 2,3 C 83 % 1021,3 hPa 0,0 l/m N 0,00 h 0 W/m 2,1 km/h (1 Bft)
05.05.2011 05:00 1,8 C 84 % 1021,5 hPa 0,0 l/m N-NO 0,00 h 0 W/m 3,6 km/h (1 Bft)
05.05.2011 06:00 1,8 C 82 % 1022,0 hPa 0,0 l/m N 0,33 h 36 W/m 5,1 km/h (1 Bft)
05.05.2011 07:00 3,4 C 78 % 1022,2 hPa 0,0 l/m N 1,00 h 213 W/m 4,3 km/h (1 Bft)
05.05.2011 08:00 6,2 C 70 % 1022,3 hPa 0,0 l/m N 1,00 h 421 W/m 6,0 km/h (2 Bft)
05.05.2011 09:00 9,5 C 57 % 1022,4 hPa 0,0 l/m NO 1,00 h 619 W/m 9,5 km/h (2 Bft)
05.05.2011 10:00 12,0 C 41 % 1022,6 hPa 0,0 l/m O 1,00 h 741 W/m 14,2 km/h (3 Bft)
05.05.2011 11:00 13,2 C 37 % 1022,5 hPa 0,0 l/m SO 1,00 h 891 W/m 13,7 km/h (3 Bft)
05.05.2011 12:00 14,2 C 37 % 1022,3 hPa 0,0 l/m O-NO 1,00 h 936 W/m 13,8 km/h (3 Bft)
05.05.2011 13:00 15,1 C 35 % 1021,9 hPa 0,0 l/m O 1,00 h 911 W/m 14,2 km/h (3 Bft)
05.05.2011 14:00 16,1 C 33 % 1021,6 hPa 0,0 l/m O-NO 0,42 h 381 W/m 15,2 km/h (3 Bft)
05.05.2011 15:00 16,7 C 31 % 1021,0 hPa 0,0 l/m O-NO 1,00 h 772 W/m 13,7 km/h (3 Bft)
05.05.2011 16:00 17,4 C 31 % 1020,6 hPa 0,0 l/m O-SO 1,00 h 638 W/m 11,9 km/h (2 Bft)
05.05.2011 17:00 17,3 C 31 % 1020,4 hPa 0,0 l/m O 1,00 h 471 W/m 15,3 km/h (3 Bft)
05.05.2011 18:00 16,7 C 31 % 1020,2 hPa 0,0 l/m O-NO 1,00 h 290 W/m 14,8 km/h (3 Bft)
05.05.2011 19:00 15,7 C 33 % 1020,3 hPa 0,0 l/m O 0,42 h 97 W/m 11,4 km/h (2 Bft)
05.05.2011 20:00 13,5 C 41 % 1020,6 hPa 0,0 l/m O-NO 0,00 h 14 W/m 5,7 km/h (1 Bft)
05.05.2011 21:00 10,1 C 56 % 1020,9 hPa 0,0 l/m N 0,00 h 0 W/m 1,7 km/h (1 Bft)
05.05.2011 22:00 8,8 C 60 % 1021,1 hPa 0,0 l/m N 0,00 h 0 W/m 2,8 km/h (1 Bft)
05.05.2011 23:00 8,1 C 63 % 1021,2 hPa 0,0 l/m N-NO 0,00 h 0 W/m 4,4 km/h (1 Bft)
06.05.2011 00:00 6,9 C 68 % 1021,3 hPa 0,0 l/m N-NO 0,00 h 0 W/m 3,6 km/h (1 Bft)
06.05.2011 01:00 6,3 C 69 % 1021,4 hPa 0,0 l/m N 0,00 h 0 W/m 5,1 km/h (1 Bft)
06.05.2011 02:00 5,4 C 74 % 1021,4 hPa 0,0 l/m N 0,00 h 0 W/m 3,6 km/h (1 Bft)
06.05.2011 03:00 4,4 C 81 % 1021,3 hPa 0,0 l/m N 0,00 h 0 W/m 2,3 km/h (1 Bft)
06.05.2011 04:00 4,0 C 82 % 1021,5 hPa 0,0 l/m N 0,00 h 0 W/m 3,9 km/h (1 Bft)
06.05.2011 05:00 3,1 C 85 % 1021,3 hPa 0,0 l/m N 0,00 h 5 W/m 0,8 km/h (0 Bft)
06.05.2011 06:00 2,8 C 87 % 1021,5 hPa 0,0 l/m N 0,25 h 43 W/m 1,1 km/h (0 Bft)
06.05.2011 07:00 5,3 C 78 % 1021,9 hPa 0,0 l/m N 1,00 h 232 W/m 2,0 km/h (1 Bft)
06.05.2011 08:00 7,9 C 69 % 1022,0 hPa 0,0 l/m N 1,00 h 431 W/m 4,8 km/h (1 Bft)
06.05.2011 09:00 10,8 C 61 % 1022,0 hPa 0,0 l/m O-SO 1,00 h 622 W/m 5,5 km/h (1 Bft)
06.05.2011 10:00 13,6 C 55 % 1021,7 hPa 0,0 l/m S-SO 1,00 h 768 W/m 5,3 km/h (1 Bft)
06.05.2011 11:00 16,7 C 44 % 1021,3 hPa 0,0 l/m S-SO 1,00 h 884 W/m 8,8 km/h (2 Bft)
06.05.2011 12:00 18,9 C 41 % 1020,8 hPa 0,0 l/m SW 1,00 h 935 W/m 8,2 km/h (2 Bft)
06.05.2011 13:00 20,5 C 39 % 1020,3 hPa 0,0 l/m S 1,00 h 918 W/m 10,1 km/h (2 Bft)
06.05.2011 14:00 21,6 C 37 % 1019,7 hPa 0,0 l/m SW 0,42 h 384 W/m 11,7 km/h (2 Bft)
06.05.2011 15:00 22,0 C 35 % 1019,3 hPa 0,0 l/m S-SW 1,00 h 734 W/m 8,7 km/h (2 Bft)
06.05.2011 16:00 22,1 C 34 % 1018,8 hPa 0,0 l/m W 1,00 h 601 W/m 9,0 km/h (2 Bft)
06.05.2011 17:00 22,4 C 27 % 1018,6 hPa 0,0 l/m SW 1,00 h 482 W/m 7,2 km/h (2 Bft)
06.05.2011 18:00 22,5 C 26 % 1018,4 hPa 0,0 l/m O-SO 1,00 h 269 W/m 6,8 km/h (2 Bft)
06.05.2011 19:00 21,2 C 32 % 1018,3 hPa 0,0 l/m O-NO 0,50 h 103 W/m 10,3 km/h (2 Bft)
06.05.2011 20:00 18,6 C 42 % 1018,5 hPa 0,0 l/m O 0,00 h 17 W/m 6,8 km/h (2 Bft)
06.05.2011 21:00 14,8 C 57 % 1019,0 hPa 0,0 l/m N 0,00 h 0 W/m 1,9 km/h (1 Bft)
06.05.2011 22:00 12,8 C 61 % 1019,3 hPa 0,0 l/m N 0,00 h 0 W/m 1,7 km/h (1 Bft)
06.05.2011 23:00 11,8 C 62 % 1019,4 hPa 0,0 l/m N-NW 0,00 h 0 W/m 2,4 km/h (1 Bft)
07.05.2011 00:00 11,1 C 63 % 1019,3 hPa 0,0 l/m N-NW 0,00 h 0 W/m 3,5 km/h (1 Bft)
07.05.2011 01:00 10,2 C 67 % 1019,2 hPa 0,0 l/m N 0,00 h 0 W/m 2,5 km/h (1 Bft)
07.05.2011 02:00 9,7 C 68 % 1019,1 hPa 0,0 l/m N 0,00 h 0 W/m 2,5 km/h (1 Bft)
07.05.2011 03:00 8,5 C 74 % 1019,2 hPa 0,0 l/m N 0,00 h 0 W/m 2,3 km/h (1 Bft)
07.05.2011 04:00 7,8 C 77 % 1019,5 hPa 0,0 l/m N 0,00 h 0 W/m 1,2 km/h (1 Bft)
07.05.2011 05:00 6,9 C 81 % 1019,4 hPa 0,0 l/m N 0,00 h 5 W/m 0,0 km/h (0 Bft)
07.05.2011 06:00 6,6 C 83 % 1019,5 hPa 0,0 l/m N 0,25 h 40 W/m 0,3 km/h (0 Bft)
07.05.2011 07:00 9,4 C 72 % 1019,7 hPa 0,0 l/m N 1,00 h 220 W/m 1,6 km/h (1 Bft)
07.05.2011 08:00 12,6 C 61 % 1019,7 hPa 0,0 l/m N-NW 1,00 h 407 W/m 1,5 km/h (1 Bft)
07.05.2011 09:00 15,8 C 52 % 1019,5 hPa 0,0 l/m NW 1,00 h 529 W/m 5,2 km/h (1 Bft)
07.05.2011 10:00 18,1 C 44 % 1019,3 hPa 0,0 l/m O-SO 1,00 h 624 W/m 7,5 km/h (2 Bft)
07.05.2011 11:00 20,2 C 43 % 1019,1 hPa 0,0 l/m O-NO 1,00 h 809 W/m 10,7 km/h (2 Bft)
07.05.2011 12:00 21,8 C 37 % 1018,6 hPa 0,0 l/m O-NO 1,00 h 891 W/m 14,2 km/h (3 Bft)
07.05.2011 13:00 23,1 C 31 % 1018,2 hPa 0,0 l/m O-NO 1,00 h 835 W/m 17,3 km/h (3 Bft)
07.05.2011 14:00 23,7 C 26 % 1017,7 hPa 0,0 l/m NO 0,42 h 387 W/m 19,4 km/h (3 Bft)
07.05.2011 15:00 24,2 C 25 % 1017,1 hPa 0,0 l/m O-SO 1,00 h 678 W/m 17,7 km/h (3 Bft)
07.05.2011 16:00 24,5 C 26 % 1016,7 hPa 0,0 l/m O-NO 1,00 h 553 W/m 15,7 km/h (3 Bft)
07.05.2011 17:00 23,6 C 27 % 1016,3 hPa 0,0 l/m O 0,42 h 268 W/m 15,3 km/h (3 Bft)
07.05.2011 18:00 23,3 C 28 % 1016,0 hPa 0,0 l/m O-SO 0,92 h 333 W/m 16,0 km/h (3 Bft)
07.05.2011 19:00 22,1 C 27 % 1015,9 hPa 0,0 l/m O 0,67 h 119 W/m 15,2 km/h (3 Bft)
07.05.2011 20:00 19,0 C 35 % 1016,2 hPa 0,0 l/m O 0,00 h 13 W/m 4,3 km/h (1 Bft)
07.05.2011 21:00 15,5 C 46 % 1016,6 hPa 0,0 l/m N 0,00 h 0 W/m 2,0 km/h (1 Bft)
07.05.2011 22:00 14,5 C 48 % 1016,5 hPa 0,0 l/m N 0,00 h 0 W/m 2,5 km/h (1 Bft)
07.05.2011 23:00 13,2 C 51 % 1016,5 hPa 0,0 l/m N 0,00 h 0 W/m 3,9 km/h (1 Bft)
08.05.2011 00:00 12,7 C 50 % 1016,8 hPa 0,0 l/m N-NW 0,00 h 0 W/m 5,1 km/h (1 Bft)
08.05.2011 01:00 11,7 C 53 % 1016,7 hPa 0,0 l/m N 0,00 h 0 W/m 5,6 km/h (1 Bft)
08.05.2011 02:00 11,1 C 56 % 1016,8 hPa 0,0 l/m N 0,00 h 0 W/m 5,7 km/h (1 Bft)
08.05.2011 03:00 10,2 C 57 % 1016,8 hPa 0,0 l/m N 0,00 h 0 W/m 4,9 km/h (1 Bft)
08.05.2011 04:00 9,0 C 61 % 1016,8 hPa 0,0 l/m N 0,00 h 0 W/m 3,2 km/h (1 Bft)
08.05.2011 05:00 8,2 C 63 % 1016,7 hPa 0,0 l/m N 0,00 h 5 W/m 3,6 km/h (1 Bft)
08.05.2011 06:00 8,0 C 64 % 1017,0 hPa 0,0 l/m N 0,25 h 46 W/m 6,8 km/h (2 Bft)
08.05.2011 07:00 9,5 C 63 % 1017,4 hPa 0,0 l/m N-NO 1,00 h 244 W/m 7,9 km/h (2 Bft)
08.05.2011 08:00 12,0 C 55 % 1017,5 hPa 0,0 l/m N-NO 1,00 h 442 W/m 8,6 km/h (2 Bft)
08.05.2011 09:00 13,9 C 52 % 1017,7 hPa 0,0 l/m NO 1,00 h 634 W/m 12,2 km/h (2 Bft)
08.05.2011 10:00 16,3 C 48 % 1017,9 hPa 0,0 l/m N-NO 1,00 h 785 W/m 13,0 km/h (3 Bft)
08.05.2011 11:00 18,5 C 43 % 1018,1 hPa 0,0 l/m O-NO 1,00 h 897 W/m 15,3 km/h (3 Bft)
08.05.2011 12:00 20,8 C 37 % 1018,0 hPa 0,0 l/m N-NO 1,00 h 932 W/m 14,5 km/h (3 Bft)
08.05.2011 13:00 23,0 C 28 % 1017,7 hPa 0,0 l/m O-SO 1,00 h 935 W/m 18,5 km/h (3 Bft)
08.05.2011 14:00 23,9 C 24 % 1017,6 hPa 0,0 l/m O 0,42 h 389 W/m 19,2 km/h (3 Bft)
08.05.2011 15:00 24,4 C 22 % 1017,6 hPa 0,0 l/m O-NO 1,00 h 785 W/m 18,9 km/h (3 Bft)
08.05.2011 16:00 24,5 C 21 % 1017,3 hPa 0,0 l/m O-SO 1,00 h 648 W/m 17,8 km/h (3 Bft)
08.05.2011 17:00 24,1 C 20 % 1017,4 hPa 0,0 l/m O-SO 1,00 h 496 W/m 18,8 km/h (3 Bft)
08.05.2011 18:00 23,2 C 18 % 1017,7 hPa 0,0 l/m O 1,00 h 338 W/m 15,8 km/h (3 Bft)
08.05.2011 19:00 21,6 C 22 % 1017,8 hPa 0,0 l/m O 0,67 h 128 W/m 14,4 km/h (3 Bft)
08.05.2011 20:00 19,3 C 32 % 1018,0 hPa 0,0 l/m O 0,00 h 13 W/m 6,8 km/h (2 Bft)
08.05.2011 21:00 16,2 C 47 % 1018,5 hPa 0,0 l/m O-NO 0,00 h 0 W/m 3,6 km/h (1 Bft)
08.05.2011 22:00 16,5 C 50 % 1018,9 hPa 0,0 l/m O 0,00 h 0 W/m 8,3 km/h (2 Bft)
08.05.2011 23:00 15,3 C 57 % 1019,1 hPa 0,0 l/m O 0,00 h 0 W/m 10,9 km/h (2 Bft)
Min-Datum _ 04.05.11 08.05.11 02.05.11 - - - - 02.05.11
_ Min-Zeit 06:10 18:55 17:20 - - - - 00:00
Minimum _ -0,2 C 17 % 1001,3 hPa - - - - 0,0 km/h (0 Bft)
Max-Datum _ 07.05.11 02.05.11 05.05.11 03.05.11 - 02.05.11 04.05.11 08.05.11
_ Max-Zeit 16:25 06:50 10:10 06:10 - 07:10 12:50 13:15
Maximum _ 24,9 C 98 % 1022,7 hPa 3,6 l/m - 0,08 h 1083 W/m 25,7 km/h
O-NO (4 Bft)
Durchschnitt _ 11,7 C 62 % 1015,3 hPa #11,2 l/m O-NO #67:25 h 410 W/m 8,3 km/h (2 Bft)